CheckWX is a tool to help pilots better visualize weather data.  It is not intended as a substitute for an official pre-flight weather briefing.

21:04:33 UTC

KPMV METAR
Plattsmouth Municipal Airport
Plattsmouth, Nebraska, USA
Current

10 mins ago

KPMV 232055Z AUTO 35012G21KT 2SM -SN OVC005 01/00 A2956 RMK AO2 P0005 60006 T00050000
Observed
Feb-23 @ 20:55 UTC
Wind
  • 350° at 12 KTS
  • Gusting to 21 KTS
Visibility
2 SM
Flight Rules
IFR
Conditions
Light Snow
Cloud Levels
  • Overcast at 500' AGL
Temperature
C / 34°F
Dewpoint
C / 32°F
Humidity
93%
Altimeter
29.56" Hg
Pressure
1001.02 hPa
Current Rain
0.05"
Previous

30 mins ago

KPMV 232035Z AUTO 36013G19KT 1 1/2SM RA OVC005 01/00 A2955 RMK AO2 P0003 T00050002
Observed
Feb-23 @ 20:35 UTC
Wind
  • 360° at 13 KTS
  • Gusting to 19 KTS
Visibility
1 1/2 SM
Flight Rules
IFR
Conditions
Rain
Cloud Levels
  • Overcast at 500' AGL
Temperature
C / 34°F
Dewpoint
C / 32°F
Humidity
93%
Altimeter
29.55" Hg
Pressure
1000.72 hPa
Current Rain
0.03"
Previous

50 mins ago

KPMV 232015Z AUTO 36015G21KT 1 3/4SM -RA OVC005 01/01 A2956 RMK AO2 P0001 T00070005
Observed
Feb-23 @ 20:15 UTC
Wind
  • 360° at 15 KTS
  • Gusting to 21 KTS
Visibility
1 3/4 SM
Flight Rules
IFR
Conditions
Light Rain
Cloud Levels
  • Overcast at 500' AGL
Temperature
C / 34°F
Dewpoint
C / 34°F
Humidity
100%
Altimeter
29.56" Hg
Pressure
1001.02 hPa
Current Rain
0.01"